Airfield :
LOGIN :

Register | Disclaimer

   EN    FR    IT 

 










Legend :    VFR   Marginal VFR   IFR   Intensive IFR   Very Intensive IFR
Visi :
Ceiling :
>= 8 km
>= 3000ft
5 to 8 km
1000 to 3000 ft
1500m to 5 km
500 to 1000 ft
800 to 1500m
200 to 500 ft
< 800m
< 200 ft
Symbols :   Thunderstorms  Fog  Heavy snow  Heavy precipitations  Wind > 20 kt
SIGMETs :     Misc.  Thunderstorms  Icing  Turbulence  Mountain Waves  Volcanic Ashes







- Airport Elevation : 364 ft
- Download approach charts


LFAQ - Albert Bray

CURRENT METAR :
  • 190830Z AUTO 26007KT 230V290 9999 FEW006 BKN013 BKN018 18/16 Q1025 TEMPO 3000 -DZ BECMG BKN005 OVC012

EXPIRED METARs :
  • 190800Z AUTO 27009KT 9999 3800 BKN007 BKN012 OVC019 17/16 Q1025 TEMPO 3000 DZ BR OVC003
  • 190730Z AUTO 27008KT 9999 BKN008 OVC016 17/16 Q1025 TEMPO 3000 DZ BR OVC003
  • 190700Z AUTO 28008KT 6000 -RADZ BKN005 OVC010 16/16 Q1025 TEMPO 3000 DZ BR
  • 190630Z AUTO 27009KT 9999 OVC006 16/16 Q1025 TEMPO 3000 DZ BR OVC003
  • 190600Z AUTO 26009KT 8000 BKN005 BKN010 OVC014 16/16 Q1025 TEMPO 3000 DZ BR

TAF TAF LFAQ
Valid from the 19 at 09:00 until the 19 at 18:00 UTC


190800Z 1909/1918 27008KT 9999 BKN005 OVC012
TEMPO 1909/1911 3000 -DZ
BECMG 1911/1914 OVC017
No reported NOTAMs for that airfield.



MET'MAP, your aeronautical weather chart ! - Copyright ORBIFLY December 2007 - Disclaimer

ORBIFLY MET'MAP TEAM :

Programming & Development : Alexandra Zaïnal
Concept & Development : Baudouin d'Aumeries
Co-Development & Prog : Marc-Olivier Méhu
Technical & hardware support : Manuel Goepfert

Contact : metmap@orbifly.com




SOURCES & CREDITS :

   NOAA